Hansa Limburg — A8IH6 — position and weather

sailwx.info

Track history (hours):
 
Tides and Currents Weather Stations Pressure Air Temp Water Temp Dewpoint Dewpoint Depression Visibility Wind Speed Wind Dir Waves Ship Positions

Hansa Limburg

Last reported at 2016-Jan-29 09:18 UTC. Time now 2016-Feb-13 08:53 UTC.
Position N 28°06' W 013°37'.
Warning: this ship's position is 14 days out of date.

Length 175.5 m; beam 27.4 m; draft 10.9 m.

Type: Ship (hazmat cat A). MMSI: 636090980.

Date/timePositionNaut miles runAvg speedWind from/ knotsBaromVisibWave heightAir tempDewpointWater temp
2016-Jan-29 09:18N 28°06' W 013°37'62313.2
2016-Jan-27 10:06N 35°58' W 005°36'713.5
2016-Jan-27 09:33N 36°00' W 005°27'8 7.6
2016-Jan-27 08:33N 36°08' W 005°25'0 0.0
2016-Jan-27 07:28N 36°08' W 005°25'0 0.0
2016-Jan-27 06:33N 36°08' W 005°25'0 0.0
2016-Jan-27 05:33N 36°08' W 005°25'0 0.0
2016-Jan-27 04:33N 36°08' W 005°25'0 0.0
2016-Jan-27 03:33N 36°08' W 005°25'1 0.8
2016-Jan-27 02:33N 36°08' W 005°25'0 0.1
2016-Jan-27 01:29N 36°08' W 005°25'0 0.1
2016-Jan-27 00:31N 36°08' W 005°24'0 0.0
2016-Jan-26 23:30N 36°08' W 005°24'0 0.0
2016-Jan-26 22:33N 36°08' W 005°24'0 0.0
2016-Jan-26 21:33N 36°08' W 005°24'0 0.0
2016-Jan-26 20:33N 36°08' W 005°24'0 0.0
2016-Jan-26 19:33N 36°08' W 005°25'0 0.0
2016-Jan-26 18:31N 36°08' W 005°25'0 0.1
2016-Jan-26 17:33N 36°08' W 005°24'0 0.1
2016-Jan-26 16:33N 36°08' W 005°24'0 0.1
2016-Jan-26 15:30N 36°08' W 005°24'2 2.6
2016-Jan-26 14:33N 36°06' W 005°23'7 6.7
2016-Jan-26 13:33N 35°59' W 005°25'13211.8
2016-Jan-26 02:22N 36°18' W 008°06'1012.2
2016-Jan-26 01:33N 36°21' W 008°18'1212.4
2016-Jan-26 00:33N 36°24' W 008°33'1212.2
2016-Jan-25 23:33N 36°27' W 008°47'1211.9
2016-Jan-25 22:30N 36°31' W 009°02'1112.1
2016-Jan-25 21:33N 36°33' W 009°16'1612.1
2016-Jan-25 20:15N 36°45' W 009°30'811.1
2016-Jan-25 19:30N 36°52' W 009°35'1212.3
2016-Jan-25 18:30N 37°04' W 009°38'1111.7
2016-Jan-25 17:33N 37°15' W 009°41'1611.7
2016-Jan-25 16:12N 37°30' W 009°45'812.1
2016-Jan-25 15:31N 37°38' W 009°48'1812.8
2016-Jan-25 14:07N 37°56' W 009°53'611.1
2016-Jan-25 13:33N 38°02' W 009°55'1211.8
2016-Jan-25 12:33N 38°13' W 009°58'1212.4
2016-Jan-25 11:33N 38°26' W 010°01'1212.1
2016-Jan-25 10:33N 38°37' W 010°05'1211.7
2016-Jan-25 09:33N 38°49' W 010°06'1212.4
2016-Jan-25 08:33N 39°01' W 010°07'1312.4
2016-Jan-25 07:33N 39°14' W 010°07'1414.2
2016-Jan-25 06:34N 39°28' W 010°07'1211.3
2016-Jan-25 05:31N 39°40' W 010°07'1211.8
2016-Jan-25 04:31N 39°51' W 010°07'1111.0
2016-Jan-25 03:33N 40°02' W 010°06'1311.9
2016-Jan-25 02:28N 40°15' W 010°06'1111.2
2016-Jan-25 01:28N 40°26' W 010°06'3911.5
2016-Jan-24 22:06N 41°05' W 010°06'610.8
2016-Jan-24 21:33N 41°11' W 010°07'1210.9
2016-Jan-24 20:28N 41°23' W 010°07'1010.8
2016-Jan-24 19:33N 41°32' W 010°07'1110.6
2016-Jan-24 18:33N 41°43' W 010°07'1110.4
2016-Jan-24 17:30N 41°54' W 010°06'47210.7
2016-Jan-22 21:23N 49°02' W 005°25'23311.7
2016-Jan-22 01:24N 50°32' E 000°09'1213.6
2016-Jan-22 00:33N 50°35' E 000°26'1312.6
2016-Jan-21 23:34N 50°40' E 000°44'1211.6
2016-Jan-21 22:34N 50°47' E 000°59'1411.0
2016-Jan-21 21:17N 50°55' E 001°17'810.4
2016-Jan-21 20:34N 51°00' E 001°26'1212.0
2016-Jan-21 19:33N 51°09' E 001°39'1414.0
2016-Jan-21 18:34N 51°21' E 001°52'1414.1
2016-Jan-21 17:34N 51°32' E 002°04'1413.6
2016-Jan-21 16:33N 51°43' E 002°19'10312.3
2016-Jan-21 08:07N 53°01' E 004°09'813.9
2016-Jan-21 07:33N 53°07' E 004°18'2713.0
2016-Jan-21 05:31N 53°29' E 004°41'1212.7
2016-Jan-21 04:33N 53°34' E 005°00'1212.3
2016-Jan-21 03:33N 53°38' E 005°20'1212.3
2016-Jan-21 02:33N 53°41' E 005°40'1313.1
2016-Jan-21 01:33N 53°46' E 006°00'1414.0
2016-Jan-21 00:34N 53°51' E 006°23'1514.7
2016-Jan-20 23:33N 53°54' E 006°47'1514.6
2016-Jan-20 22:34N 53°58' E 007°11'1514.3
2016-Jan-20 21:33N 54°01' E 007°35'1313.6
2016-Jan-20 20:33N 54°01' E 007°58'1313.3
2016-Jan-20 19:34N 53°60' E 008°20'1413.8
2016-Jan-20 18:33N 53°54' E 008°42'1313.0
2016-Jan-20 17:34N 53°52' E 009°03'1212.1
2016-Jan-20 16:33N 53°48' E 009°23'1615.8
2016-Jan-20 15:33N 53°35' E 009°38'1110.7
2016-Jan-20 14:33N 53°33' E 009°55'2 2.2
2016-Jan-20 13:32N 53°30' E 009°56'0 0.0
2016-Jan-20 12:33N 53°30' E 009°56'0 0.0
2016-Jan-20 11:33N 53°30' E 009°56'0 0.0
2016-Jan-20 10:32N 53°30' E 009°56'0 0.0
2016-Jan-20 09:33N 53°30' E 009°56'0 0.0
2016-Jan-20 08:34N 53°30' E 009°56'0 0.0
2016-Jan-20 07:33N 53°30' E 009°56'0 0.0
2016-Jan-20 06:33N 53°30' E 009°56'0 0.0
2016-Jan-20 05:33N 53°30' E 009°56'0 0.0
2016-Jan-20 04:33N 53°30' E 009°56'0 0.0
2016-Jan-20 03:33N 53°30' E 009°56'0 0.0
2016-Jan-20 02:33N 53°30' E 009°56'0 0.0
2016-Jan-20 01:33N 53°30' E 009°56'0 0.0
2016-Jan-20 00:33N 53°30' E 009°56'0 0.0
2016-Jan-19 23:33N 53°30' E 009°56'0 0.0
2016-Jan-19 22:33N 53°30' E 009°56'0 0.0
2016-Jan-19 21:33N 53°30' E 009°56'0 0.0
2016-Jan-19 20:33N 53°30' E 009°56'0 0.0
2016-Jan-19 19:33N 53°30' E 009°56'7 6.7
2016-Jan-19 18:33N 53°34' E 009°46'1111.4
2016-Jan-19 17:33N 53°40' E 009°31'1515.0
2016-Jan-19 16:33N 53°52' E 009°16'1313.0
2016-Jan-19 15:33N 53°51' E 008°54'1111.4
2016-Jan-19 14:33N 53°57' E 008°38'1515.1
2016-Jan-19 13:33N 53°60' E 008°13'1010.3
2016-Jan-19 12:33N 53°58' E 007°56'1111.2
2016-Jan-19 11:34N 53°56' E 007°37'1110.8
2016-Jan-19 10:34N 53°53' E 007°19'1110.7
2016-Jan-19 09:34N 53°51' E 007°01'  
Track history (hours):
 
Tides and Currents Weather Stations Pressure Air Temp Water Temp Dewpoint Dewpoint Depression Visibility Wind Speed Wind Dir Waves Ship Positions

Hansa Limburg

Last reported at 2016-Jan-29 09:18 UTC. Time now 2016-Feb-13 08:53 UTC.
Position N 28°06' W 013°37'.
Warning: this ship's position is 14 days out of date.

Length 175.5 m; beam 27.4 m; draft 10.9 m.

Type: Ship (hazmat cat A). MMSI: 636090980.

Date/timePositionNaut miles runAvg speedWind from/ knotsBaromVisibWave heightAir tempDewpointWater temp
2016-Jan-29 09:18N 28°06' W 013°37'62313.2
2016-Jan-27 10:06N 35°58' W 005°36'713.5
2016-Jan-27 09:33N 36°00' W 005°27'8 7.6
2016-Jan-27 08:33N 36°08' W 005°25'0 0.0
2016-Jan-27 07:28N 36°08' W 005°25'0 0.0
2016-Jan-27 06:33N 36°08' W 005°25'0 0.0
2016-Jan-27 05:33N 36°08' W 005°25'0 0.0
2016-Jan-27 04:33N 36°08' W 005°25'0 0.0
2016-Jan-27 03:33N 36°08' W 005°25'1 0.8
2016-Jan-27 02:33N 36°08' W 005°25'0 0.1
2016-Jan-27 01:29N 36°08' W 005°25'0 0.1
2016-Jan-27 00:31N 36°08' W 005°24'0 0.0
2016-Jan-26 23:30N 36°08' W 005°24'0 0.0
2016-Jan-26 22:33N 36°08' W 005°24'0 0.0
2016-Jan-26 21:33N 36°08' W 005°24'0 0.0
2016-Jan-26 20:33N 36°08' W 005°24'0 0.0
2016-Jan-26 19:33N 36°08' W 005°25'0 0.0
2016-Jan-26 18:31N 36°08' W 005°25'0 0.1
2016-Jan-26 17:33N 36°08' W 005°24'0 0.1
2016-Jan-26 16:33N 36°08' W 005°24'0 0.1
2016-Jan-26 15:30N 36°08' W 005°24'2 2.6
2016-Jan-26 14:33N 36°06' W 005°23'7 6.7
2016-Jan-26 13:33N 35°59' W 005°25'13211.8
2016-Jan-26 02:22N 36°18' W 008°06'1012.2
2016-Jan-26 01:33N 36°21' W 008°18'1212.4
2016-Jan-26 00:33N 36°24' W 008°33'1212.2
2016-Jan-25 23:33N 36°27' W 008°47'1211.9
2016-Jan-25 22:30N 36°31' W 009°02'1112.1
2016-Jan-25 21:33N 36°33' W 009°16'1612.1
2016-Jan-25 20:15N 36°45' W 009°30'811.1
2016-Jan-25 19:30N 36°52' W 009°35'1212.3
2016-Jan-25 18:30N 37°04' W 009°38'1111.7
2016-Jan-25 17:33N 37°15' W 009°41'1611.7
2016-Jan-25 16:12N 37°30' W 009°45'812.1
2016-Jan-25 15:31N 37°38' W 009°48'1812.8
2016-Jan-25 14:07N 37°56' W 009°53'611.1
2016-Jan-25 13:33N 38°02' W 009°55'1211.8
2016-Jan-25 12:33N 38°13' W 009°58'1212.4
2016-Jan-25 11:33N 38°26' W 010°01'1212.1
2016-Jan-25 10:33N 38°37' W 010°05'1211.7
2016-Jan-25 09:33N 38°49' W 010°06'1212.4
2016-Jan-25 08:33N 39°01' W 010°07'1312.4
2016-Jan-25 07:33N 39°14' W 010°07'1414.2
2016-Jan-25 06:34N 39°28' W 010°07'1211.3
2016-Jan-25 05:31N 39°40' W 010°07'1211.8
2016-Jan-25 04:31N 39°51' W 010°07'1111.0
2016-Jan-25 03:33N 40°02' W 010°06'1311.9
2016-Jan-25 02:28N 40°15' W 010°06'1111.2
2016-Jan-25 01:28N 40°26' W 010°06'3911.5
2016-Jan-24 22:06N 41°05' W 010°06'610.8
2016-Jan-24 21:33N 41°11' W 010°07'1210.9
2016-Jan-24 20:28N 41°23' W 010°07'1010.8
2016-Jan-24 19:33N 41°32' W 010°07'1110.6
2016-Jan-24 18:33N 41°43' W 010°07'1110.4
2016-Jan-24 17:30N 41°54' W 010°06'47210.7
2016-Jan-22 21:23N 49°02' W 005°25'23311.7
2016-Jan-22 01:24N 50°32' E 000°09'1213.6
2016-Jan-22 00:33N 50°35' E 000°26'1312.6
2016-Jan-21 23:34N 50°40' E 000°44'1211.6
2016-Jan-21 22:34N 50°47' E 000°59'1411.0
2016-Jan-21 21:17N 50°55' E 001°17'810.4
2016-Jan-21 20:34N 51°00' E 001°26'1212.0
2016-Jan-21 19:33N 51°09' E 001°39'1414.0
2016-Jan-21 18:34N 51°21' E 001°52'1414.1
2016-Jan-21 17:34N 51°32' E 002°04'1413.6
2016-Jan-21 16:33N 51°43' E 002°19'10312.3
2016-Jan-21 08:07N 53°01' E 004°09'813.9
2016-Jan-21 07:33N 53°07' E 004°18'2713.0
2016-Jan-21 05:31N 53°29' E 004°41'1212.7
2016-Jan-21 04:33N 53°34' E 005°00'1212.3
2016-Jan-21 03:33N 53°38' E 005°20'1212.3
2016-Jan-21 02:33N 53°41' E 005°40'1313.1
2016-Jan-21 01:33N 53°46' E 006°00'1414.0
2016-Jan-21 00:34N 53°51' E 006°23'1514.7
2016-Jan-20 23:33N 53°54' E 006°47'1514.6
2016-Jan-20 22:34N 53°58' E 007°11'1514.3
2016-Jan-20 21:33N 54°01' E 007°35'1313.6
2016-Jan-20 20:33N 54°01' E 007°58'1313.3
2016-Jan-20 19:34N 53°60' E 008°20'1413.8
2016-Jan-20 18:33N 53°54' E 008°42'1313.0
2016-Jan-20 17:34N 53°52' E 009°03'1212.1
2016-Jan-20 16:33N 53°48' E 009°23'1615.8
2016-Jan-20 15:33N 53°35' E 009°38'1110.7
2016-Jan-20 14:33N 53°33' E 009°55'2 2.2
2016-Jan-20 13:32N 53°30' E 009°56'0 0.0
2016-Jan-20 12:33N 53°30' E 009°56'0 0.0
2016-Jan-20 11:33N 53°30' E 009°56'0 0.0
2016-Jan-20 10:32N 53°30' E 009°56'0 0.0
2016-Jan-20 09:33N 53°30' E 009°56'0 0.0
2016-Jan-20 08:34N 53°30' E 009°56'0 0.0
2016-Jan-20 07:33N 53°30' E 009°56'0 0.0
2016-Jan-20 06:33N 53°30' E 009°56'0 0.0
2016-Jan-20 05:33N 53°30' E 009°56'0 0.0
2016-Jan-20 04:33N 53°30' E 009°56'0 0.0
2016-Jan-20 03:33N 53°30' E 009°56'0 0.0
2016-Jan-20 02:33N 53°30' E 009°56'0 0.0
2016-Jan-20 01:33N 53°30' E 009°56'0 0.0
2016-Jan-20 00:33N 53°30' E 009°56'0 0.0
2016-Jan-19 23:33N 53°30' E 009°56'0 0.0
2016-Jan-19 22:33N 53°30' E 009°56'0 0.0
2016-Jan-19 21:33N 53°30' E 009°56'0 0.0
2016-Jan-19 20:33N 53°30' E 009°56'0 0.0
2016-Jan-19 19:33N 53°30' E 009°56'7 6.7
2016-Jan-19 18:33N 53°34' E 009°46'1111.4
2016-Jan-19 17:33N 53°40' E 009°31'1515.0
2016-Jan-19 16:33N 53°52' E 009°16'1313.0
2016-Jan-19 15:33N 53°51' E 008°54'1111.4
2016-Jan-19 14:33N 53°57' E 008°38'1515.1
2016-Jan-19 13:33N 53°60' E 008°13'1010.3
2016-Jan-19 12:33N 53°58' E 007°56'1111.2
2016-Jan-19 11:34N 53°56' E 007°37'1110.8
2016-Jan-19 10:34N 53°53' E 007°19'1110.7
2016-Jan-19 09:34N 53°51' E 007°01'  

Dump ship's entire track history